sensor_id;sensor_type;location;lat;lon;timestamp;temperature;humidity
9371;DHT22;4725;48.384;8.984;2023-06-04T00:02:26;13.90;99.90
9371;DHT22;4725;48.384;8.984;2023-06-04T00:04:53;14.00;99.90
9371;DHT22;4725;48.384;8.984;2023-06-04T00:07:21;14.10;99.90
9371;DHT22;4725;48.384;8.984;2023-06-04T00:09:48;14.10;99.90
9371;DHT22;4725;48.384;8.984;2023-06-04T00:12:15;14.30;99.90
9371;DHT22;4725;48.384;8.984;2023-06-04T00:14:42;13.60;99.90
9371;DHT22;4725;48.384;8.984;2023-06-04T00:17:09;13.20;99.90
9371;DHT22;4725;48.384;8.984;2023-06-04T00:19:38;13.20;99.90
9371;DHT22;4725;48.384;8.984;2023-06-04T00:22:05;13.40;99.90
9371;DHT22;4725;48.384;8.984;2023-06-04T00:24:34;13.30;99.90
9371;DHT22;4725;48.384;8.984;2023-06-04T00:27:01;12.30;99.90
9371;DHT22;4725;48.384;8.984;2023-06-04T00:29:28;12.30;99.90
9371;DHT22;4725;48.384;8.984;2023-06-04T00:31:54;12.30;99.90
9371;DHT22;4725;48.384;8.984;2023-06-04T00:34:21;12.60;99.90
9371;DHT22;4725;48.384;8.984;2023-06-04T00:36:48;12.80;99.90
9371;DHT22;4725;48.384;8.984;2023-06-04T00:39:15;12.70;99.90
9371;DHT22;4725;48.384;8.984;2023-06-04T00:41:43;12.60;99.90
9371;DHT22;4725;48.384;8.984;2023-06-04T00:44:10;12.20;99.90
9371;DHT22;4725;48.384;8.984;2023-06-04T00:46:37;12.40;99.90
9371;DHT22;4725;48.384;8.984;2023-06-04T00:49:05;12.40;99.90
9371;DHT22;4725;48.384;8.984;2023-06-04T00:51:32;12.10;99.90
9371;DHT22;4725;48.384;8.984;2023-06-04T00:53:59;12.20;99.90
9371;DHT22;4725;48.384;8.984;2023-06-04T00:56:34;12.20;99.90
9371;DHT22;4725;48.384;8.984;2023-06-04T00:59:02;12.40;99.90
9371;DHT22;4725;48.384;8.984;2023-06-04T01:01:33;12.60;99.90
9371;DHT22;4725;48.384;8.984;2023-06-04T01:04:04;12.70;99.90
9371;DHT22;4725;48.384;8.984;2023-06-04T01:06:38;12.60;99.90
9371;DHT22;4725;48.384;8.984;2023-06-04T01:09:06;12.70;99.90
9371;DHT22;4725;48.384;8.984;2023-06-04T01:11:33;12.70;99.90
9371;DHT22;4725;48.384;8.984;2023-06-04T01:14:03;12.60;99.90
9371;DHT22;4725;48.384;8.984;2023-06-04T01:16:34;12.50;99.90
9371;DHT22;4725;48.384;8.984;2023-06-04T01:19:13;12.40;99.90
9371;DHT22;4725;48.384;8.984;2023-06-04T01:21:48;12.00;99.90
9371;DHT22;4725;48.384;8.984;2023-06-04T01:24:20;12.10;99.90
9371;DHT22;4725;48.384;8.984;2023-06-04T01:26:48;12.10;99.90
9371;DHT22;4725;48.384;8.984;2023-06-04T01:29:18;11.90;99.90
9371;DHT22;4725;48.384;8.984;2023-06-04T01:31:45;11.90;99.90
9371;DHT22;4725;48.384;8.984;2023-06-04T01:36:39;12.10;99.90
9371;DHT22;4725;48.384;8.984;2023-06-04T01:39:06;12.10;99.90
9371;DHT22;4725;48.384;8.984;2023-06-04T01:41:33;12.20;99.90
9371;DHT22;4725;48.384;8.984;2023-06-04T01:44:00;12.20;99.90
9371;DHT22;4725;48.384;8.984;2023-06-04T01:46:28;12.20;99.90
9371;DHT22;4725;48.384;8.984;2023-06-04T01:48:56;12.10;99.90
9371;DHT22;4725;48.384;8.984;2023-06-04T01:51:23;12.10;99.90
9371;DHT22;4725;48.384;8.984;2023-06-04T01:53:50;12.00;99.90
9371;DHT22;4725;48.384;8.984;2023-06-04T01:56:17;11.90;99.90
9371;DHT22;4725;48.384;8.984;2023-06-04T01:58:46;11.80;99.90
9371;DHT22;4725;48.384;8.984;2023-06-04T02:01:13;11.80;99.90
9371;DHT22;4725;48.384;8.984;2023-06-04T02:03:43;11.80;99.90
9371;DHT22;4725;48.384;8.984;2023-06-04T02:06:10;11.80;99.90
9371;DHT22;4725;48.384;8.984;2023-06-04T02:08:37;11.90;99.90
9371;DHT22;4725;48.384;8.984;2023-06-04T02:11:05;11.80;99.90
9371;DHT22;4725;48.384;8.984;2023-06-04T02:13:32;11.70;99.90
9371;DHT22;4725;48.384;8.984;2023-06-04T02:15:59;11.60;99.90
9371;DHT22;4725;48.384;8.984;2023-06-04T02:18:26;11.20;99.90
9371;DHT22;4725;48.384;8.984;2023-06-04T02:20:56;11.00;99.90
9371;DHT22;4725;48.384;8.984;2023-06-04T02:23:23;11.10;99.90
9371;DHT22;4725;48.384;8.984;2023-06-04T02:25:50;11.30;99.90
9371;DHT22;4725;48.384;8.984;2023-06-04T02:28:16;10.30;99.90
9371;DHT22;4725;48.384;8.984;2023-06-04T02:30:44;10.30;99.90
9371;DHT22;4725;48.384;8.984;2023-06-04T02:33:12;10.10;99.90
9371;DHT22;4725;48.384;8.984;2023-06-04T02:35:39;10.40;99.90
9371;DHT22;4725;48.384;8.984;2023-06-04T02:38:07;10.20;99.90
9371;DHT22;4725;48.384;8.984;2023-06-04T02:40:34;10.30;99.90
9371;DHT22;4725;48.384;8.984;2023-06-04T02:43:01;10.30;99.90
9371;DHT22;4725;48.384;8.984;2023-06-04T02:45:28;10.10;99.90
9371;DHT22;4725;48.384;8.984;2023-06-04T02:47:55;10.00;99.90
9371;DHT22;4725;48.384;8.984;2023-06-04T02:50:22;10.10;99.90
9371;DHT22;4725;48.384;8.984;2023-06-04T02:52:49;10.20;99.90
9371;DHT22;4725;48.384;8.984;2023-06-04T02:55:17;10.10;99.90
9371;DHT22;4725;48.384;8.984;2023-06-04T02:57:44;10.30;99.90
9371;DHT22;4725;48.384;8.984;2023-06-04T03:00:12;10.40;99.90
9371;DHT22;4725;48.384;8.984;2023-06-04T03:02:40;10.30;99.90
9371;DHT22;4725;48.384;8.984;2023-06-04T03:05:09;10.30;99.90
9371;DHT22;4725;48.384;8.984;2023-06-04T03:07:39;10.20;99.90
9371;DHT22;4725;48.384;8.984;2023-06-04T03:10:08;10.10;99.90
9371;DHT22;4725;48.384;8.984;2023-06-04T03:12:37;10.10;99.90
9371;DHT22;4725;48.384;8.984;2023-06-04T03:15:05;9.80;99.90
9371;DHT22;4725;48.384;8.984;2023-06-04T03:17:32;9.80;99.90
9371;DHT22;4725;48.384;8.984;2023-06-04T03:19:59;9.90;99.90
9371;DHT22;4725;48.384;8.984;2023-06-04T03:22:26;9.90;99.90
9371;DHT22;4725;48.384;8.984;2023-06-04T03:24:53;9.80;99.90
9371;DHT22;4725;48.384;8.984;2023-06-04T03:27:20;10.00;99.90
9371;DHT22;4725;48.384;8.984;2023-06-04T03:29:49;10.10;99.90
9371;DHT22;4725;48.384;8.984;2023-06-04T03:32:15;10.20;99.90
9371;DHT22;4725;48.384;8.984;2023-06-04T03:34:43;10.20;99.90
9371;DHT22;4725;48.384;8.984;2023-06-04T03:37:10;9.80;99.90
9371;DHT22;4725;48.384;8.984;2023-06-04T03:39:37;9.80;99.90
9371;DHT22;4725;48.384;8.984;2023-06-04T03:42:04;9.90;99.90
9371;DHT22;4725;48.384;8.984;2023-06-04T03:44:31;10.00;99.90
9371;DHT22;4725;48.384;8.984;2023-06-04T03:47:00;10.10;99.90
9371;DHT22;4725;48.384;8.984;2023-06-04T03:49:27;10.10;99.90
9371;DHT22;4725;48.384;8.984;2023-06-04T03:51:54;10.10;99.90
9371;DHT22;4725;48.384;8.984;2023-06-04T03:54:21;10.30;99.90
9371;DHT22;4725;48.384;8.984;2023-06-04T03:56:48;10.60;99.90
9371;DHT22;4725;48.384;8.984;2023-06-04T03:59:15;10.80;99.90
9371;DHT22;4725;48.384;8.984;2023-06-04T04:01:42;11.00;99.90
9371;DHT22;4725;48.384;8.984;2023-06-04T04:04:10;10.80;99.90
9371;DHT22;4725;48.384;8.984;2023-06-04T04:06:37;10.80;99.90
9371;DHT22;4725;48.384;8.984;2023-06-04T04:09:04;10.70;99.90
9371;DHT22;4725;48.384;8.984;2023-06-04T04:11:32;10.60;99.90
9371;DHT22;4725;48.384;8.984;2023-06-04T04:13:59;10.50;99.90
9371;DHT22;4725;48.384;8.984;2023-06-04T04:16:26;10.40;99.90
9371;DHT22;4725;48.384;8.984;2023-06-04T04:18:53;10.20;99.90
9371;DHT22;4725;48.384;8.984;2023-06-04T04:21:21;10.20;99.90
9371;DHT22;4725;48.384;8.984;2023-06-04T04:23:49;10.40;99.90
9371;DHT22;4725;48.384;8.984;2023-06-04T04:26:17;10.50;99.90
9371;DHT22;4725;48.384;8.984;2023-06-04T04:28:44;10.60;99.90
9371;DHT22;4725;48.384;8.984;2023-06-04T04:31:11;10.70;99.90
9371;DHT22;4725;48.384;8.984;2023-06-04T04:33:38;10.80;99.90
9371;DHT22;4725;48.384;8.984;2023-06-04T04:36:06;11.00;99.90
9371;DHT22;4725;48.384;8.984;2023-06-04T04:38:39;11.30;99.90
9371;DHT22;4725;48.384;8.984;2023-06-04T04:41:06;11.40;99.90
9371;DHT22;4725;48.384;8.984;2023-06-04T04:43:35;11.50;99.90
9371;DHT22;4725;48.384;8.984;2023-06-04T04:46:03;11.60;99.90
9371;DHT22;4725;48.384;8.984;2023-06-04T04:48:30;11.70;99.90
9371;DHT22;4725;48.384;8.984;2023-06-04T04:50:57;11.80;99.90
9371;DHT22;4725;48.384;8.984;2023-06-04T04:53:23;11.90;99.90
9371;DHT22;4725;48.384;8.984;2023-06-04T04:55:52;12.00;99.90
9371;DHT22;4725;48.384;8.984;2023-06-04T04:58:19;12.00;99.90
9371;DHT22;4725;48.384;8.984;2023-06-04T05:00:45;12.10;99.90
9371;DHT22;4725;48.384;8.984;2023-06-04T05:03:13;12.00;99.90
9371;DHT22;4725;48.384;8.984;2023-06-04T05:05:40;12.10;99.90
9371;DHT22;4725;48.384;8.984;2023-06-04T05:08:07;12.20;99.90
9371;DHT22;4725;48.384;8.984;2023-06-04T05:10:34;12.20;99.90
9371;DHT22;4725;48.384;8.984;2023-06-04T05:13:03;12.10;99.90
9371;DHT22;4725;48.384;8.984;2023-06-04T05:15:31;12.10;99.90
9371;DHT22;4725;48.384;8.984;2023-06-04T05:17:58;12.30;99.90
9371;DHT22;4725;48.384;8.984;2023-06-04T05:20:27;12.50;99.90
9371;DHT22;4725;48.384;8.984;2023-06-04T05:22:55;12.60;99.90
9371;DHT22;4725;48.384;8.984;2023-06-04T05:25:22;12.80;99.90
9371;DHT22;4725;48.384;8.984;2023-06-04T05:27:49;13.00;99.90
9371;DHT22;4725;48.384;8.984;2023-06-04T05:30:17;13.00;99.90
9371;DHT22;4725;48.384;8.984;2023-06-04T05:32:44;13.10;99.90
9371;DHT22;4725;48.384;8.984;2023-06-04T05:35:11;13.20;99.90
9371;DHT22;4725;48.384;8.984;2023-06-04T05:37:38;13.30;99.90
9371;DHT22;4725;48.384;8.984;2023-06-04T05:40:06;13.30;99.90
9371;DHT22;4725;48.384;8.984;2023-06-04T05:42:35;13.40;99.90
9371;DHT22;4725;48.384;8.984;2023-06-04T05:45:02;13.50;99.90
9371;DHT22;4725;48.384;8.984;2023-06-04T05:47:30;13.50;99.90
9371;DHT22;4725;48.384;8.984;2023-06-04T05:49:57;13.60;99.90
9371;DHT22;4725;48.384;8.984;2023-06-04T05:52:24;13.60;99.90
9371;DHT22;4725;48.384;8.984;2023-06-04T05:54:51;13.60;99.90
9371;DHT22;4725;48.384;8.984;2023-06-04T05:57:18;13.90;99.90
9371;DHT22;4725;48.384;8.984;2023-06-04T05:59:45;13.90;99.90
9371;DHT22;4725;48.384;8.984;2023-06-04T06:02:12;14.20;99.90
9371;DHT22;4725;48.384;8.984;2023-06-04T06:04:41;14.20;99.90
9371;DHT22;4725;48.384;8.984;2023-06-04T06:07:08;14.40;99.90
9371;DHT22;4725;48.384;8.984;2023-06-04T06:09:35;14.40;99.90
9371;DHT22;4725;48.384;8.984;2023-06-04T06:12:03;14.50;99.90
9371;DHT22;4725;48.384;8.984;2023-06-04T06:14:31;14.60;99.90
9371;DHT22;4725;48.384;8.984;2023-06-04T06:16:58;14.60;99.90
9371;DHT22;4725;48.384;8.984;2023-06-04T06:19:25;14.80;99.90
9371;DHT22;4725;48.384;8.984;2023-06-04T06:21:54;14.80;99.90
9371;DHT22;4725;48.384;8.984;2023-06-04T06:24:21;15.00;99.90
9371;DHT22;4725;48.384;8.984;2023-06-04T06:26:48;15.40;99.90
9371;DHT22;4725;48.384;8.984;2023-06-04T06:29:15;15.30;99.90
9371;DHT22;4725;48.384;8.984;2023-06-04T06:31:42;15.70;99.90
9371;DHT22;4725;48.384;8.984;2023-06-04T06:34:08;15.70;99.90
9371;DHT22;4725;48.384;8.984;2023-06-04T06:36:35;15.70;99.90
9371;DHT22;4725;48.384;8.984;2023-06-04T06:39:03;15.60;99.90
9371;DHT22;4725;48.384;8.984;2023-06-04T06:41:31;15.70;99.90
9371;DHT22;4725;48.384;8.984;2023-06-04T06:43:57;15.70;99.90
9371;DHT22;4725;48.384;8.984;2023-06-04T06:46:24;15.80;99.90
9371;DHT22;4725;48.384;8.984;2023-06-04T06:48:51;16.00;99.90
9371;DHT22;4725;48.384;8.984;2023-06-04T06:51:18;16.10;99.90
9371;DHT22;4725;48.384;8.984;2023-06-04T06:53:45;16.20;99.90
9371;DHT22;4725;48.384;8.984;2023-06-04T06:56:14;16.50;99.90
9371;DHT22;4725;48.384;8.984;2023-06-04T06:58:41;16.60;99.90
9371;DHT22;4725;48.384;8.984;2023-06-04T07:01:08;16.60;99.90
9371;DHT22;4725;48.384;8.984;2023-06-04T07:03:35;16.70;99.90
9371;DHT22;4725;48.384;8.984;2023-06-04T07:06:03;16.70;99.90
9371;DHT22;4725;48.384;8.984;2023-06-04T07:08:30;17.00;99.90
9371;DHT22;4725;48.384;8.984;2023-06-04T07:10:57;17.00;99.90
9371;DHT22;4725;48.384;8.984;2023-06-04T07:13:26;17.10;99.90
9371;DHT22;4725;48.384;8.984;2023-06-04T07:15:53;17.20;99.90
9371;DHT22;4725;48.384;8.984;2023-06-04T07:18:20;17.30;99.90
9371;DHT22;4725;48.384;8.984;2023-06-04T07:20:47;17.40;99.90
9371;DHT22;4725;48.384;8.984;2023-06-04T07:23:14;17.40;99.90
9371;DHT22;4725;48.384;8.984;2023-06-04T07:25:41;17.60;99.90
9371;DHT22;4725;48.384;8.984;2023-06-04T07:28:08;17.80;99.90
9371;DHT22;4725;48.384;8.984;2023-06-04T07:30:37;17.80;99.90
9371;DHT22;4725;48.384;8.984;2023-06-04T07:33:05;17.80;99.90
9371;DHT22;4725;48.384;8.984;2023-06-04T07:35:32;17.90;99.90
9371;DHT22;4725;48.384;8.984;2023-06-04T07:37:59;18.10;99.90
9371;DHT22;4725;48.384;8.984;2023-06-04T07:40:26;18.20;99.90
9371;DHT22;4725;48.384;8.984;2023-06-04T07:42:52;18.40;99.90
9371;DHT22;4725;48.384;8.984;2023-06-04T07:45:19;18.50;99.90
9371;DHT22;4725;48.384;8.984;2023-06-04T07:47:47;18.60;99.90
9371;DHT22;4725;48.384;8.984;2023-06-04T07:50:14;18.60;99.90
9371;DHT22;4725;48.384;8.984;2023-06-04T07:52:41;18.70;99.90
9371;DHT22;4725;48.384;8.984;2023-06-04T07:55:08;18.80;99.90
9371;DHT22;4725;48.384;8.984;2023-06-04T07:57:35;18.90;99.90
9371;DHT22;4725;48.384;8.984;2023-06-04T08:00:03;18.90;99.90
9371;DHT22;4725;48.384;8.984;2023-06-04T08:02:31;18.90;99.90
9371;DHT22;4725;48.384;8.984;2023-06-04T08:05:00;19.00;99.90
9371;DHT22;4725;48.384;8.984;2023-06-04T08:07:27;19.20;99.90
9371;DHT22;4725;48.384;8.984;2023-06-04T08:09:54;19.20;99.90
9371;DHT22;4725;48.384;8.984;2023-06-04T08:12:22;19.30;99.90
9371;DHT22;4725;48.384;8.984;2023-06-04T08:14:48;19.50;99.90
9371;DHT22;4725;48.384;8.984;2023-06-04T08:17:16;19.60;99.90
9371;DHT22;4725;48.384;8.984;2023-06-04T08:19:43;19.60;99.90
9371;DHT22;4725;48.384;8.984;2023-06-04T08:22:11;19.70;99.90
9371;DHT22;4725;48.384;8.984;2023-06-04T08:24:38;19.60;99.90
9371;DHT22;4725;48.384;8.984;2023-06-04T08:27:05;20.20;99.90
9371;DHT22;4725;48.384;8.984;2023-06-04T08:29:33;20.20;99.90
9371;DHT22;4725;48.384;8.984;2023-06-04T08:32:01;20.30;99.90
9371;DHT22;4725;48.384;8.984;2023-06-04T08:34:28;20.30;99.90
9371;DHT22;4725;48.384;8.984;2023-06-04T08:36:55;21.60;99.90
9371;DHT22;4725;48.384;8.984;2023-06-04T08:39:23;20.50;99.90
9371;DHT22;4725;48.384;8.984;2023-06-04T08:41:52;20.70;99.90
9371;DHT22;4725;48.384;8.984;2023-06-04T08:44:21;21.00;99.90
9371;DHT22;4725;48.384;8.984;2023-06-04T08:46:51;21.10;99.90
9371;DHT22;4725;48.384;8.984;2023-06-04T08:49:19;20.10;99.90
9371;DHT22;4725;48.384;8.984;2023-06-04T08:51:48;21.30;99.90
9371;DHT22;4725;48.384;8.984;2023-06-04T08:54:15;21.30;99.90
9371;DHT22;4725;48.384;8.984;2023-06-04T08:56:43;21.40;99.90
9371;DHT22;4725;48.384;8.984;2023-06-04T08:59:10;21.40;99.90
9371;DHT22;4725;48.384;8.984;2023-06-04T09:01:39;21.50;99.90
9371;DHT22;4725;48.384;8.984;2023-06-04T09:04:10;21.70;99.90
9371;DHT22;4725;48.384;8.984;2023-06-04T09:06:38;21.80;99.90
9371;DHT22;4725;48.384;8.984;2023-06-04T09:09:09;21.80;99.90
9371;DHT22;4725;48.384;8.984;2023-06-04T09:11:41;21.80;99.90
9371;DHT22;4725;48.384;8.984;2023-06-04T09:14:11;22.10;99.90
9371;DHT22;4725;48.384;8.984;2023-06-04T09:16:45;22.40;99.90
9371;DHT22;4725;48.384;8.984;2023-06-04T09:19:12;22.60;99.50
9371;DHT22;4725;48.384;8.984;2023-06-04T09:21:49;22.60;99.60
9371;DHT22;4725;48.384;8.984;2023-06-04T09:24:17;22.90;99.10
9371;DHT22;4725;48.384;8.984;2023-06-04T09:26:44;22.90;99.40
9371;DHT22;4725;48.384;8.984;2023-06-04T09:29:14;22.80;99.00
9371;DHT22;4725;48.384;8.984;2023-06-04T09:31:41;22.90;97.90
9371;DHT22;4725;48.384;8.984;2023-06-04T09:34:07;22.90;98.40
9371;DHT22;4725;48.384;8.984;2023-06-04T09:36:35;23.00;98.10
9371;DHT22;4725;48.384;8.984;2023-06-04T09:39:03;23.00;97.90
9371;DHT22;4725;48.384;8.984;2023-06-04T09:41:30;22.80;98.70
9371;DHT22;4725;48.384;8.984;2023-06-04T09:44:01;23.10;98.40
9371;DHT22;4725;48.384;8.984;2023-06-04T09:46:30;23.40;97.70
9371;DHT22;4725;48.384;8.984;2023-06-04T09:49:01;23.80;97.70
9371;DHT22;4725;48.384;8.984;2023-06-04T09:51:29;24.00;97.10
9371;DHT22;4725;48.384;8.984;2023-06-04T09:53:57;24.10;97.10
9371;DHT22;4725;48.384;8.984;2023-06-04T09:56:24;24.10;96.90
9371;DHT22;4725;48.384;8.984;2023-06-04T09:58:54;24.30;96.60
9371;DHT22;4725;48.384;8.984;2023-06-04T10:01:23;24.50;96.50
9371;DHT22;4725;48.384;8.984;2023-06-04T10:03:53;24.60;96.10
9371;DHT22;4725;48.384;8.984;2023-06-04T10:06:20;24.90;95.70
9371;DHT22;4725;48.384;8.984;2023-06-04T10:08:49;24.60;96.20
9371;DHT22;4725;48.384;8.984;2023-06-04T10:11:21;24.90;96.90
9371;DHT22;4725;48.384;8.984;2023-06-04T10:13:52;25.20;95.80
9371;DHT22;4725;48.384;8.984;2023-06-04T10:16:20;25.30;94.90
9371;DHT22;4725;48.384;8.984;2023-06-04T10:18:47;25.60;93.80
9371;DHT22;4725;48.384;8.984;2023-06-04T10:21:17;25.60;94.10
9371;DHT22;4725;48.384;8.984;2023-06-04T10:23:45;26.00;94.00
9371;DHT22;4725;48.384;8.984;2023-06-04T10:26:13;25.90;93.80
9371;DHT22;4725;48.384;8.984;2023-06-04T10:28:42;25.60;93.50
9371;DHT22;4725;48.384;8.984;2023-06-04T10:31:09;25.90;94.00
9371;DHT22;4725;48.384;8.984;2023-06-04T10:33:36;26.10;93.70
9371;DHT22;4725;48.384;8.984;2023-06-04T10:36:17;26.00;93.40
9371;DHT22;4725;48.384;8.984;2023-06-04T10:38:46;26.20;92.50
9371;DHT22;4725;48.384;8.984;2023-06-04T10:41:14;26.80;92.40
9371;DHT22;4725;48.384;8.984;2023-06-04T10:43:41;26.80;92.80
9371;DHT22;4725;48.384;8.984;2023-06-04T10:46:12;27.00;92.10
9371;DHT22;4725;48.384;8.984;2023-06-04T10:48:46;27.00;92.00
9371;DHT22;4725;48.384;8.984;2023-06-04T10:51:13;27.00;92.60
9371;DHT22;4725;48.384;8.984;2023-06-04T10:53:41;27.10;92.20
9371;DHT22;4725;48.384;8.984;2023-06-04T10:56:08;27.00;92.10
9371;DHT22;4725;48.384;8.984;2023-06-04T10:58:35;27.20;92.00
9371;DHT22;4725;48.384;8.984;2023-06-04T11:01:02;28.40;89.50
9371;DHT22;4725;48.384;8.984;2023-06-04T11:03:35;28.40;89.90
9371;DHT22;4725;48.384;8.984;2023-06-04T11:06:02;28.60;88.00
9371;DHT22;4725;48.384;8.984;2023-06-04T11:08:42;28.60;88.20
9371;DHT22;4725;48.384;8.984;2023-06-04T11:11:11;28.50;89.30
9371;DHT22;4725;48.384;8.984;2023-06-04T11:13:38;28.50;90.40
9371;DHT22;4725;48.384;8.984;2023-06-04T11:16:14;29.20;87.00
9371;DHT22;4725;48.384;8.984;2023-06-04T11:18:41;28.60;84.40
9371;DHT22;4725;48.384;8.984;2023-06-04T11:21:08;28.40;87.70
9371;DHT22;4725;48.384;8.984;2023-06-04T11:23:37;28.00;87.20
9371;DHT22;4725;48.384;8.984;2023-06-04T11:26:05;28.30;86.30
9371;DHT22;4725;48.384;8.984;2023-06-04T11:28:32;28.00;85.40
9371;DHT22;4725;48.384;8.984;2023-06-04T11:31:00;27.90;87.60
9371;DHT22;4725;48.384;8.984;2023-06-04T11:33:28;28.00;87.30
9371;DHT22;4725;48.384;8.984;2023-06-04T11:35:55;27.80;84.40
9371;DHT22;4725;48.384;8.984;2023-06-04T11:38:22;27.50;85.60
9371;DHT22;4725;48.384;8.984;2023-06-04T11:40:56;27.30;88.00
9371;DHT22;4725;48.384;8.984;2023-06-04T11:43:24;27.50;86.70
9371;DHT22;4725;48.384;8.984;2023-06-04T11:45:51;27.50;85.60
9371;DHT22;4725;48.384;8.984;2023-06-04T11:48:18;28.00;82.80
9371;DHT22;4725;48.384;8.984;2023-06-04T11:50:46;27.90;82.50
9371;DHT22;4725;48.384;8.984;2023-06-04T11:53:13;27.80;81.00
9371;DHT22;4725;48.384;8.984;2023-06-04T11:55:40;28.40;81.10
9371;DHT22;4725;48.384;8.984;2023-06-04T11:58:07;28.40;81.30
9371;DHT22;4725;48.384;8.984;2023-06-04T12:00:36;28.50;82.10
9371;DHT22;4725;48.384;8.984;2023-06-04T12:03:03;28.90;82.40
9371;DHT22;4725;48.384;8.984;2023-06-04T12:05:31;29.00;77.90
9371;DHT22;4725;48.384;8.984;2023-06-04T12:08:04;29.10;77.00
9371;DHT22;4725;48.384;8.984;2023-06-04T12:10:37;29.10;79.90
9371;DHT22;4725;48.384;8.984;2023-06-04T12:13:04;29.50;79.40
9371;DHT22;4725;48.384;8.984;2023-06-04T12:15:31;29.10;79.20
9371;DHT22;4725;48.384;8.984;2023-06-04T12:17:59;29.20;76.60
9371;DHT22;4725;48.384;8.984;2023-06-04T12:20:33;29.20;75.40
9371;DHT22;4725;48.384;8.984;2023-06-04T12:23:00;29.30;75.90
9371;DHT22;4725;48.384;8.984;2023-06-04T12:25:28;29.20;77.10
9371;DHT22;4725;48.384;8.984;2023-06-04T12:27:55;28.90;78.40
9371;DHT22;4725;48.384;8.984;2023-06-04T12:30:23;29.00;79.30
9371;DHT22;4725;48.384;8.984;2023-06-04T12:32:50;29.50;75.40
9371;DHT22;4725;48.384;8.984;2023-06-04T12:35:19;29.40;77.80
9371;DHT22;4725;48.384;8.984;2023-06-04T12:37:46;29.40;74.20
9371;DHT22;4725;48.384;8.984;2023-06-04T12:40:13;29.30;76.10
9371;DHT22;4725;48.384;8.984;2023-06-04T12:42:40;29.20;76.20
9371;DHT22;4725;48.384;8.984;2023-06-04T12:45:09;29.40;75.00
9371;DHT22;4725;48.384;8.984;2023-06-04T12:47:36;29.70;75.10
9371;DHT22;4725;48.384;8.984;2023-06-04T12:50:04;30.00;75.10
9371;DHT22;4725;48.384;8.984;2023-06-04T12:52:32;29.90;74.90
9371;DHT22;4725;48.384;8.984;2023-06-04T12:54:59;30.10;72.60
9371;DHT22;4725;48.384;8.984;2023-06-04T12:57:26;30.50;72.40
9371;DHT22;4725;48.384;8.984;2023-06-04T12:59:53;30.30;70.60
9371;DHT22;4725;48.384;8.984;2023-06-04T13:02:20;30.20;71.20
9371;DHT22;4725;48.384;8.984;2023-06-04T13:04:47;30.20;73.40
9371;DHT22;4725;48.384;8.984;2023-06-04T13:07:18;30.20;71.50
9371;DHT22;4725;48.384;8.984;2023-06-04T13:09:46;30.30;72.30
9371;DHT22;4725;48.384;8.984;2023-06-04T13:12:13;30.60;73.40
9371;DHT22;4725;48.384;8.984;2023-06-04T13:14:40;30.40;72.20
9371;DHT22;4725;48.384;8.984;2023-06-04T13:17:07;30.90;72.00
9371;DHT22;4725;48.384;8.984;2023-06-04T13:19:35;31.10;69.80
9371;DHT22;4725;48.384;8.984;2023-06-04T13:22:02;30.70;73.20
9371;DHT22;4725;48.384;8.984;2023-06-04T13:24:29;30.70;72.80
9371;DHT22;4725;48.384;8.984;2023-06-04T13:26:57;31.70;69.40
9371;DHT22;4725;48.384;8.984;2023-06-04T13:29:24;32.10;65.80
9371;DHT22;4725;48.384;8.984;2023-06-04T13:31:51;31.90;67.20
9371;DHT22;4725;48.384;8.984;2023-06-04T13:34:20;31.60;67.90
9371;DHT22;4725;48.384;8.984;2023-06-04T13:36:46;31.20;69.00
9371;DHT22;4725;48.384;8.984;2023-06-04T13:39:13;30.00;68.40
9371;DHT22;4725;48.384;8.984;2023-06-04T13:41:40;29.70;70.80
9371;DHT22;4725;48.384;8.984;2023-06-04T13:44:08;30.00;71.20
9371;DHT22;4725;48.384;8.984;2023-06-04T13:46:35;30.30;70.30
9371;DHT22;4725;48.384;8.984;2023-06-04T13:49:02;28.50;67.00
9371;DHT22;4725;48.384;8.984;2023-06-04T13:51:30;30.80;68.30
9371;DHT22;4725;48.384;8.984;2023-06-04T13:53:57;30.20;69.00
9371;DHT22;4725;48.384;8.984;2023-06-04T13:56:24;30.80;69.60
9371;DHT22;4725;48.384;8.984;2023-06-04T13:58:51;31.40;67.30
9371;DHT22;4725;48.384;8.984;2023-06-04T14:01:19;31.40;69.80
9371;DHT22;4725;48.384;8.984;2023-06-04T14:03:46;30.90;69.90
9371;DHT22;4725;48.384;8.984;2023-06-04T14:06:13;30.80;71.30
9371;DHT22;4725;48.384;8.984;2023-06-04T14:08:40;31.00;66.20
9371;DHT22;4725;48.384;8.984;2023-06-04T14:11:06;31.00;69.00
9371;DHT22;4725;48.384;8.984;2023-06-04T14:13:33;31.00;68.10
9371;DHT22;4725;48.384;8.984;2023-06-04T14:16:00;31.40;65.30
9371;DHT22;4725;48.384;8.984;2023-06-04T14:18:28;31.60;66.00
9371;DHT22;4725;48.384;8.984;2023-06-04T14:20:55;31.70;66.50
9371;DHT22;4725;48.384;8.984;2023-06-04T14:23:22;31.00;67.80
9371;DHT22;4725;48.384;8.984;2023-06-04T14:25:49;30.80;65.60
9371;DHT22;4725;48.384;8.984;2023-06-04T14:28:16;29.60;67.50
9371;DHT22;4725;48.384;8.984;2023-06-04T14:30:43;29.40;68.40
9371;DHT22;4725;48.384;8.984;2023-06-04T14:33:10;29.20;68.30
9371;DHT22;4725;48.384;8.984;2023-06-04T14:35:38;29.00;67.80
9371;DHT22;4725;48.384;8.984;2023-06-04T14:38:09;28.40;67.90
9371;DHT22;4725;48.384;8.984;2023-06-04T14:40:37;28.20;68.50
9371;DHT22;4725;48.384;8.984;2023-06-04T14:45:32;27.50;69.20
9371;DHT22;4725;48.384;8.984;2023-06-04T14:47:59;26.90;71.90
9371;DHT22;4725;48.384;8.984;2023-06-04T14:50:26;27.00;73.10
9371;DHT22;4725;48.384;8.984;2023-06-04T14:52:54;26.80;72.60
9371;DHT22;4725;48.384;8.984;2023-06-04T14:55:21;26.60;71.20
9371;DHT22;4725;48.384;8.984;2023-06-04T14:57:49;26.20;72.20
9371;DHT22;4725;48.384;8.984;2023-06-04T15:00:16;25.60;73.30
9371;DHT22;4725;48.384;8.984;2023-06-04T15:02:43;25.50;74.00
9371;DHT22;4725;48.384;8.984;2023-06-04T15:05:10;25.40;72.90
9371;DHT22;4725;48.384;8.984;2023-06-04T15:07:37;25.80;74.40
9371;DHT22;4725;48.384;8.984;2023-06-04T15:10:07;25.90;75.00
9371;DHT22;4725;48.384;8.984;2023-06-04T15:12:34;26.10;74.20
9371;DHT22;4725;48.384;8.984;2023-06-04T15:15:04;26.20;74.80
9371;DHT22;4725;48.384;8.984;2023-06-04T15:17:31;25.90;74.50
9371;DHT22;4725;48.384;8.984;2023-06-04T15:19:58;25.90;75.40
9371;DHT22;4725;48.384;8.984;2023-06-04T15:22:25;26.10;75.60
9371;DHT22;4725;48.384;8.984;2023-06-04T15:24:53;26.20;75.30
9371;DHT22;4725;48.384;8.984;2023-06-04T15:27:21;27.00;72.90
9371;DHT22;4725;48.384;8.984;2023-06-04T15:29:48;26.90;74.40
9371;DHT22;4725;48.384;8.984;2023-06-04T15:32:15;27.20;72.50
9371;DHT22;4725;48.384;8.984;2023-06-04T15:34:42;27.00;73.20
9371;DHT22;4725;48.384;8.984;2023-06-04T15:37:09;27.30;72.70
9371;DHT22;4725;48.384;8.984;2023-06-04T15:39:36;27.30;68.10
9371;DHT22;4725;48.384;8.984;2023-06-04T15:42:03;26.70;71.30
9371;DHT22;4725;48.384;8.984;2023-06-04T15:44:31;26.70;73.00
9371;DHT22;4725;48.384;8.984;2023-06-04T15:46:58;26.90;71.20
9371;DHT22;4725;48.384;8.984;2023-06-04T15:49:27;27.00;72.10
9371;DHT22;4725;48.384;8.984;2023-06-04T15:51:54;27.30;71.10
9371;DHT22;4725;48.384;8.984;2023-06-04T15:54:20;27.00;72.40
9371;DHT22;4725;48.384;8.984;2023-06-04T15:56:47;28.10;69.50
9371;DHT22;4725;48.384;8.984;2023-06-04T15:59:14;28.10;68.50
9371;DHT22;4725;48.384;8.984;2023-06-04T16:01:42;28.30;70.10
9371;DHT22;4725;48.384;8.984;2023-06-04T16:04:10;28.50;67.30
9371;DHT22;4725;48.384;8.984;2023-06-04T16:06:37;28.60;68.60
9371;DHT22;4725;48.384;8.984;2023-06-04T16:09:05;28.80;67.90
9371;DHT22;4725;48.384;8.984;2023-06-04T16:11:31;29.10;67.90